sensor_id;sensor_type;location;lat;lon;timestamp;P1;durP1;ratioP1;P2;durP2;ratioP2
80705;SDS011;70229;48.010;7.852;2023-07-20T00:01:45;7.82;;;2.72;;
80705;SDS011;70229;48.010;7.852;2023-07-20T00:04:10;11.57;;;2.67;;
80705;SDS011;70229;48.010;7.852;2023-07-20T00:06:36;4.93;;;2.35;;
80705;SDS011;70229;48.010;7.852;2023-07-20T00:09:05;5.72;;;1.85;;
80705;SDS011;70229;48.010;7.852;2023-07-20T00:11:35;4.60;;;2.15;;
80705;SDS011;70229;48.010;7.852;2023-07-20T00:14:05;4.18;;;2.42;;
80705;SDS011;70229;48.010;7.852;2023-07-20T00:16:31;4.53;;;2.40;;
80705;SDS011;70229;48.010;7.852;2023-07-20T00:18:57;4.90;;;2.65;;
80705;SDS011;70229;48.010;7.852;2023-07-20T00:21:23;5.50;;;2.25;;
80705;SDS011;70229;48.010;7.852;2023-07-20T00:23:48;4.93;;;2.47;;
80705;SDS011;70229;48.010;7.852;2023-07-20T00:26:14;5.70;;;2.53;;
80705;SDS011;70229;48.010;7.852;2023-07-20T00:28:40;6.20;;;2.40;;
80705;SDS011;70229;48.010;7.852;2023-07-20T00:31:06;5.95;;;2.35;;
80705;SDS011;70229;48.010;7.852;2023-07-20T00:33:31;5.50;;;2.72;;
80705;SDS011;70229;48.010;7.852;2023-07-20T00:35:57;9.32;;;1.95;;
80705;SDS011;70229;48.010;7.852;2023-07-20T00:38:23;5.25;;;2.40;;
80705;SDS011;70229;48.010;7.852;2023-07-20T00:40:48;5.22;;;2.47;;
80705;SDS011;70229;48.010;7.852;2023-07-20T00:43:14;3.55;;;2.28;;
80705;SDS011;70229;48.010;7.852;2023-07-20T00:45:40;4.78;;;2.42;;
80705;SDS011;70229;48.010;7.852;2023-07-20T00:48:06;5.28;;;2.15;;
80705;SDS011;70229;48.010;7.852;2023-07-20T00:50:33;4.18;;;2.60;;
80705;SDS011;70229;48.010;7.852;2023-07-20T00:52:59;4.68;;;2.53;;
80705;SDS011;70229;48.010;7.852;2023-07-20T00:55:25;6.80;;;2.50;;
80705;SDS011;70229;48.010;7.852;2023-07-20T00:57:53;6.00;;;2.30;;
80705;SDS011;70229;48.010;7.852;2023-07-20T01:00:19;4.97;;;2.00;;
80705;SDS011;70229;48.010;7.852;2023-07-20T01:02:45;4.95;;;2.55;;
80705;SDS011;70229;48.010;7.852;2023-07-20T01:05:10;7.45;;;2.55;;
80705;SDS011;70229;48.010;7.852;2023-07-20T01:07:46;7.00;;;3.00;;
80705;SDS011;70229;48.010;7.852;2023-07-20T01:10:20;5.93;;;2.55;;
80705;SDS011;70229;48.010;7.852;2023-07-20T01:12:53;4.53;;;2.40;;
80705;SDS011;70229;48.010;7.852;2023-07-20T01:15:20;13.68;;;2.55;;
80705;SDS011;70229;48.010;7.852;2023-07-20T01:17:46;4.05;;;2.00;;
80705;SDS011;70229;48.010;7.852;2023-07-20T01:20:14;5.13;;;2.40;;
80705;SDS011;70229;48.010;7.852;2023-07-20T01:25:53;7.15;;;2.55;;
80705;SDS011;70229;48.010;7.852;2023-07-20T01:31:21;7.60;;;2.70;;
80705;SDS011;70229;48.010;7.852;2023-07-20T01:33:48;4.60;;;2.55;;
80705;SDS011;70229;48.010;7.852;2023-07-20T01:36:16;5.22;;;2.55;;
80705;SDS011;70229;48.010;7.852;2023-07-20T01:38:43;4.50;;;2.70;;
80705;SDS011;70229;48.010;7.852;2023-07-20T01:41:10;6.97;;;2.58;;
80705;SDS011;70229;48.010;7.852;2023-07-20T01:43:36;4.72;;;2.92;;
80705;SDS011;70229;48.010;7.852;2023-07-20T01:46:02;5.30;;;3.08;;
80705;SDS011;70229;48.010;7.852;2023-07-20T01:48:27;3.33;;;1.65;;
80705;SDS011;70229;48.010;7.852;2023-07-20T01:50:53;6.85;;;2.63;;
80705;SDS011;70229;48.010;7.852;2023-07-20T01:53:19;3.85;;;2.38;;
80705;SDS011;70229;48.010;7.852;2023-07-20T01:55:45;5.28;;;2.60;;
80705;SDS011;70229;48.010;7.852;2023-07-20T01:58:11;5.47;;;1.95;;
80705;SDS011;70229;48.010;7.852;2023-07-20T02:00:37;5.43;;;2.25;;
80705;SDS011;70229;48.010;7.852;2023-07-20T02:03:02;4.35;;;1.83;;
80705;SDS011;70229;48.010;7.852;2023-07-20T02:05:28;4.35;;;2.30;;
80705;SDS011;70229;48.010;7.852;2023-07-20T02:07:54;8.00;;;3.00;;
80705;SDS011;70229;48.010;7.852;2023-07-20T02:10:19;5.57;;;3.05;;
80705;SDS011;70229;48.010;7.852;2023-07-20T02:12:45;5.47;;;2.47;;
80705;SDS011;70229;48.010;7.852;2023-07-20T02:15:11;6.43;;;2.63;;
80705;SDS011;70229;48.010;7.852;2023-07-20T02:17:38;7.55;;;2.85;;
80705;SDS011;70229;48.010;7.852;2023-07-20T02:20:06;4.45;;;2.67;;
80705;SDS011;70229;48.010;7.852;2023-07-20T02:22:34;8.65;;;2.85;;
80705;SDS011;70229;48.010;7.852;2023-07-20T02:24:59;6.82;;;2.88;;
80705;SDS011;70229;48.010;7.852;2023-07-20T02:27:25;7.90;;;2.55;;
80705;SDS011;70229;48.010;7.852;2023-07-20T02:29:50;5.90;;;2.47;;
80705;SDS011;70229;48.010;7.852;2023-07-20T02:32:16;7.22;;;3.05;;
80705;SDS011;70229;48.010;7.852;2023-07-20T02:34:45;4.47;;;2.53;;
80705;SDS011;70229;48.010;7.852;2023-07-20T02:37:10;4.07;;;2.50;;
80705;SDS011;70229;48.010;7.852;2023-07-20T02:39:38;4.63;;;2.55;;
80705;SDS011;70229;48.010;7.852;2023-07-20T02:42:04;5.07;;;2.88;;
80705;SDS011;70229;48.010;7.852;2023-07-20T02:44:32;4.10;;;2.22;;
80705;SDS011;70229;48.010;7.852;2023-07-20T02:46:58;3.88;;;2.35;;
80705;SDS011;70229;48.010;7.852;2023-07-20T02:49:23;4.18;;;2.33;;
80705;SDS011;70229;48.010;7.852;2023-07-20T02:51:55;4.47;;;2.63;;
80705;SDS011;70229;48.010;7.852;2023-07-20T02:54:20;6.40;;;2.50;;
80705;SDS011;70229;48.010;7.852;2023-07-20T02:57:02;5.18;;;2.65;;
80705;SDS011;70229;48.010;7.852;2023-07-20T02:59:39;7.50;;;2.42;;
80705;SDS011;70229;48.010;7.852;2023-07-20T03:05:23;4.85;;;1.98;;
80705;SDS011;70229;48.010;7.852;2023-07-20T03:08:00;4.72;;;2.53;;
80705;SDS011;70229;48.010;7.852;2023-07-20T03:10:30;4.03;;;1.92;;
80705;SDS011;70229;48.010;7.852;2023-07-20T03:12:56;5.20;;;2.20;;
80705;SDS011;70229;48.010;7.852;2023-07-20T03:16:02;3.78;;;2.40;;
80705;SDS011;70229;48.010;7.852;2023-07-20T03:18:30;8.98;;;2.95;;
80705;SDS011;70229;48.010;7.852;2023-07-20T03:23:57;5.10;;;2.85;;
80705;SDS011;70229;48.010;7.852;2023-07-20T03:26:36;4.88;;;2.55;;
80705;SDS011;70229;48.010;7.852;2023-07-20T03:29:25;5.45;;;2.08;;
80705;SDS011;70229;48.010;7.852;2023-07-20T03:32:00;5.57;;;2.58;;
80705;SDS011;70229;48.010;7.852;2023-07-20T03:34:25;4.13;;;2.20;;
80705;SDS011;70229;48.010;7.852;2023-07-20T03:36:53;4.35;;;2.22;;
80705;SDS011;70229;48.010;7.852;2023-07-20T03:39:22;3.90;;;2.15;;
80705;SDS011;70229;48.010;7.852;2023-07-20T03:41:52;7.88;;;3.42;;
80705;SDS011;70229;48.010;7.852;2023-07-20T03:47:00;5.88;;;2.60;;
80705;SDS011;70229;48.010;7.852;2023-07-20T03:49:34;7.82;;;3.15;;
80705;SDS011;70229;48.010;7.852;2023-07-20T03:52:02;4.68;;;2.60;;
80705;SDS011;70229;48.010;7.852;2023-07-20T03:54:33;4.13;;;2.53;;
80705;SDS011;70229;48.010;7.852;2023-07-20T03:57:21;4.35;;;2.38;;
80705;SDS011;70229;48.010;7.852;2023-07-20T04:00:03;4.32;;;2.40;;
80705;SDS011;70229;48.010;7.852;2023-07-20T04:02:45;6.97;;;2.67;;
80705;SDS011;70229;48.010;7.852;2023-07-20T04:05:16;4.45;;;2.30;;
80705;SDS011;70229;48.010;7.852;2023-07-20T04:07:45;6.20;;;2.50;;
80705;SDS011;70229;48.010;7.852;2023-07-20T04:10:16;5.40;;;2.35;;
80705;SDS011;70229;48.010;7.852;2023-07-20T04:12:49;6.18;;;2.47;;
80705;SDS011;70229;48.010;7.852;2023-07-20T04:15:36;5.13;;;2.88;;
80705;SDS011;70229;48.010;7.852;2023-07-20T04:18:28;5.00;;;3.00;;
80705;SDS011;70229;48.010;7.852;2023-07-20T04:20:58;4.88;;;2.58;;
80705;SDS011;70229;48.010;7.852;2023-07-20T04:23:28;6.10;;;2.58;;
80705;SDS011;70229;48.010;7.852;2023-07-20T04:25:56;6.30;;;2.58;;
80705;SDS011;70229;48.010;7.852;2023-07-20T04:28:22;4.78;;;2.40;;
80705;SDS011;70229;48.010;7.852;2023-07-20T04:30:48;4.97;;;2.42;;
80705;SDS011;70229;48.010;7.852;2023-07-20T04:33:17;4.20;;;2.45;;
80705;SDS011;70229;48.010;7.852;2023-07-20T04:35:50;4.60;;;3.05;;
80705;SDS011;70229;48.010;7.852;2023-07-20T04:38:29;5.20;;;2.65;;
80705;SDS011;70229;48.010;7.852;2023-07-20T04:41:10;4.70;;;2.60;;
80705;SDS011;70229;48.010;7.852;2023-07-20T04:43:49;3.85;;;2.53;;
80705;SDS011;70229;48.010;7.852;2023-07-20T04:46:15;6.82;;;3.20;;
80705;SDS011;70229;48.010;7.852;2023-07-20T04:48:46;6.70;;;2.63;;
80705;SDS011;70229;48.010;7.852;2023-07-20T04:51:13;4.75;;;2.83;;
80705;SDS011;70229;48.010;7.852;2023-07-20T04:53:46;6.13;;;2.67;;
80705;SDS011;70229;48.010;7.852;2023-07-20T04:56:14;10.63;;;3.05;;
80705;SDS011;70229;48.010;7.852;2023-07-20T04:58:40;5.15;;;2.45;;
80705;SDS011;70229;48.010;7.852;2023-07-20T05:01:09;5.30;;;2.95;;
80705;SDS011;70229;48.010;7.852;2023-07-20T05:03:42;5.20;;;2.65;;
80705;SDS011;70229;48.010;7.852;2023-07-20T05:06:18;8.38;;;2.95;;
80705;SDS011;70229;48.010;7.852;2023-07-20T05:08:53;5.28;;;2.80;;
80705;SDS011;70229;48.010;7.852;2023-07-20T05:11:21;4.60;;;2.22;;
80705;SDS011;70229;48.010;7.852;2023-07-20T05:13:49;6.30;;;2.28;;
80705;SDS011;70229;48.010;7.852;2023-07-20T05:16:15;6.53;;;3.00;;
80705;SDS011;70229;48.010;7.852;2023-07-20T05:18:53;5.07;;;2.55;;
80705;SDS011;70229;48.010;7.852;2023-07-20T05:21:24;5.55;;;2.75;;
80705;SDS011;70229;48.010;7.852;2023-07-20T05:23:50;6.00;;;2.95;;
80705;SDS011;70229;48.010;7.852;2023-07-20T05:26:15;7.82;;;2.80;;
80705;SDS011;70229;48.010;7.852;2023-07-20T05:28:41;4.13;;;2.47;;
80705;SDS011;70229;48.010;7.852;2023-07-20T05:31:06;15.20;;;2.80;;
80705;SDS011;70229;48.010;7.852;2023-07-20T05:33:35;6.38;;;2.70;;
80705;SDS011;70229;48.010;7.852;2023-07-20T05:36:01;5.45;;;2.60;;
80705;SDS011;70229;48.010;7.852;2023-07-20T05:38:26;4.43;;;2.50;;
80705;SDS011;70229;48.010;7.852;2023-07-20T05:40:52;5.60;;;2.00;;
80705;SDS011;70229;48.010;7.852;2023-07-20T05:43:24;5.28;;;3.25;;
80705;SDS011;70229;48.010;7.852;2023-07-20T05:45:49;6.25;;;4.13;;
80705;SDS011;70229;48.010;7.852;2023-07-20T05:48:15;5.78;;;3.28;;
80705;SDS011;70229;48.010;7.852;2023-07-20T05:50:43;11.95;;;3.13;;
80705;SDS011;70229;48.010;7.852;2023-07-20T05:53:09;5.47;;;2.97;;
80705;SDS011;70229;48.010;7.852;2023-07-20T05:55:34;7.75;;;2.63;;
80705;SDS011;70229;48.010;7.852;2023-07-20T05:58:00;7.45;;;3.42;;
80705;SDS011;70229;48.010;7.852;2023-07-20T06:00:26;6.18;;;2.67;;
80705;SDS011;70229;48.010;7.852;2023-07-20T06:02:52;10.20;;;2.75;;
80705;SDS011;70229;48.010;7.852;2023-07-20T06:05:18;6.28;;;3.08;;
80705;SDS011;70229;48.010;7.852;2023-07-20T06:07:46;7.53;;;2.85;;
80705;SDS011;70229;48.010;7.852;2023-07-20T06:10:11;10.57;;;2.65;;
80705;SDS011;70229;48.010;7.852;2023-07-20T06:12:37;10.45;;;3.05;;
80705;SDS011;70229;48.010;7.852;2023-07-20T06:15:03;6.45;;;2.42;;
80705;SDS011;70229;48.010;7.852;2023-07-20T06:17:30;6.55;;;2.72;;
80705;SDS011;70229;48.010;7.852;2023-07-20T06:19:55;9.85;;;3.15;;
80705;SDS011;70229;48.010;7.852;2023-07-20T06:22:21;6.95;;;3.17;;
80705;SDS011;70229;48.010;7.852;2023-07-20T06:24:47;8.15;;;2.75;;
80705;SDS011;70229;48.010;7.852;2023-07-20T06:27:13;5.40;;;3.08;;
80705;SDS011;70229;48.010;7.852;2023-07-20T06:29:38;5.97;;;3.00;;
80705;SDS011;70229;48.010;7.852;2023-07-20T06:32:05;4.95;;;2.80;;
80705;SDS011;70229;48.010;7.852;2023-07-20T06:34:30;7.45;;;2.92;;
80705;SDS011;70229;48.010;7.852;2023-07-20T06:36:56;5.32;;;2.80;;
80705;SDS011;70229;48.010;7.852;2023-07-20T06:39:22;7.32;;;2.50;;
80705;SDS011;70229;48.010;7.852;2023-07-20T06:41:47;5.70;;;3.03;;
80705;SDS011;70229;48.010;7.852;2023-07-20T06:44:13;9.25;;;3.20;;
80705;SDS011;70229;48.010;7.852;2023-07-20T06:46:38;8.10;;;3.67;;
80705;SDS011;70229;48.010;7.852;2023-07-20T06:49:06;5.85;;;2.80;;
80705;SDS011;70229;48.010;7.852;2023-07-20T06:51:33;4.95;;;2.25;;
80705;SDS011;70229;48.010;7.852;2023-07-20T06:53:58;6.22;;;3.30;;
80705;SDS011;70229;48.010;7.852;2023-07-20T06:56:24;6.18;;;3.22;;
80705;SDS011;70229;48.010;7.852;2023-07-20T06:58:49;6.70;;;2.88;;
80705;SDS011;70229;48.010;7.852;2023-07-20T07:01:15;5.78;;;2.50;;
80705;SDS011;70229;48.010;7.852;2023-07-20T07:03:40;7.38;;;3.55;;
80705;SDS011;70229;48.010;7.852;2023-07-20T07:06:06;9.35;;;2.85;;
80705;SDS011;70229;48.010;7.852;2023-07-20T07:08:31;9.32;;;4.30;;
80705;SDS011;70229;48.010;7.852;2023-07-20T07:10:57;10.32;;;4.90;;
80705;SDS011;70229;48.010;7.852;2023-07-20T07:13:22;5.75;;;3.30;;
80705;SDS011;70229;48.010;7.852;2023-07-20T07:15:48;11.65;;;3.22;;
80705;SDS011;70229;48.010;7.852;2023-07-20T07:18:14;5.53;;;3.38;;
80705;SDS011;70229;48.010;7.852;2023-07-20T07:20:39;9.25;;;2.95;;
80705;SDS011;70229;48.010;7.852;2023-07-20T07:23:05;5.53;;;2.75;;
80705;SDS011;70229;48.010;7.852;2023-07-20T07:25:30;6.05;;;2.85;;
80705;SDS011;70229;48.010;7.852;2023-07-20T07:27:57;6.63;;;3.10;;
80705;SDS011;70229;48.010;7.852;2023-07-20T07:30:22;9.45;;;3.42;;
80705;SDS011;70229;48.010;7.852;2023-07-20T07:32:48;7.50;;;2.65;;
80705;SDS011;70229;48.010;7.852;2023-07-20T07:35:14;7.10;;;2.53;;
80705;SDS011;70229;48.010;7.852;2023-07-20T07:37:39;4.90;;;2.45;;
80705;SDS011;70229;48.010;7.852;2023-07-20T07:40:06;6.25;;;2.58;;
80705;SDS011;70229;48.010;7.852;2023-07-20T07:42:33;6.32;;;3.00;;
80705;SDS011;70229;48.010;7.852;2023-07-20T07:44:59;8.25;;;3.08;;
80705;SDS011;70229;48.010;7.852;2023-07-20T07:47:24;4.53;;;2.25;;
80705;SDS011;70229;48.010;7.852;2023-07-20T07:49:50;7.75;;;2.42;;
80705;SDS011;70229;48.010;7.852;2023-07-20T07:52:16;5.00;;;2.28;;
80705;SDS011;70229;48.010;7.852;2023-07-20T07:54:41;8.00;;;2.78;;
80705;SDS011;70229;48.010;7.852;2023-07-20T07:57:07;4.40;;;2.55;;
80705;SDS011;70229;48.010;7.852;2023-07-20T07:59:32;5.03;;;2.67;;
80705;SDS011;70229;48.010;7.852;2023-07-20T08:02:01;5.03;;;2.47;;
80705;SDS011;70229;48.010;7.852;2023-07-20T08:04:29;13.40;;;3.05;;
80705;SDS011;70229;48.010;7.852;2023-07-20T08:06:55;5.82;;;3.15;;
80705;SDS011;70229;48.010;7.852;2023-07-20T08:09:20;4.50;;;2.13;;
80705;SDS011;70229;48.010;7.852;2023-07-20T08:11:46;4.97;;;2.40;;
80705;SDS011;70229;48.010;7.852;2023-07-20T08:14:13;4.15;;;2.42;;
80705;SDS011;70229;48.010;7.852;2023-07-20T08:16:38;4.47;;;2.63;;
80705;SDS011;70229;48.010;7.852;2023-07-20T08:19:04;5.53;;;2.80;;
80705;SDS011;70229;48.010;7.852;2023-07-20T08:21:29;4.88;;;2.30;;
80705;SDS011;70229;48.010;7.852;2023-07-20T08:23:55;5.75;;;2.85;;
80705;SDS011;70229;48.010;7.852;2023-07-20T08:26:21;5.45;;;2.70;;
80705;SDS011;70229;48.010;7.852;2023-07-20T08:28:47;7.05;;;2.83;;
80705;SDS011;70229;48.010;7.852;2023-07-20T08:31:13;7.22;;;2.38;;
80705;SDS011;70229;48.010;7.852;2023-07-20T08:33:39;7.18;;;2.38;;
80705;SDS011;70229;48.010;7.852;2023-07-20T08:36:04;4.40;;;2.40;;
80705;SDS011;70229;48.010;7.852;2023-07-20T08:38:31;6.47;;;2.40;;
80705;SDS011;70229;48.010;7.852;2023-07-20T08:40:56;4.85;;;2.72;;
80705;SDS011;70229;48.010;7.852;2023-07-20T08:43:24;6.70;;;2.50;;
80705;SDS011;70229;48.010;7.852;2023-07-20T08:45:50;3.92;;;2.20;;
80705;SDS011;70229;48.010;7.852;2023-07-20T08:48:18;6.90;;;2.42;;
80705;SDS011;70229;48.010;7.852;2023-07-20T08:50:45;6.72;;;3.15;;
80705;SDS011;70229;48.010;7.852;2023-07-20T08:53:15;3.95;;;2.03;;
80705;SDS011;70229;48.010;7.852;2023-07-20T08:55:42;6.75;;;2.25;;
80705;SDS011;70229;48.010;7.852;2023-07-20T08:58:11;6.43;;;2.75;;
80705;SDS011;70229;48.010;7.852;2023-07-20T09:00:37;4.22;;;1.42;;
80705;SDS011;70229;48.010;7.852;2023-07-20T09:03:04;8.60;;;2.42;;
80705;SDS011;70229;48.010;7.852;2023-07-20T09:05:30;7.70;;;2.35;;
80705;SDS011;70229;48.010;7.852;2023-07-20T09:07:55;4.53;;;2.22;;
80705;SDS011;70229;48.010;7.852;2023-07-20T09:10:21;6.50;;;2.50;;
80705;SDS011;70229;48.010;7.852;2023-07-20T09:12:48;4.65;;;2.58;;
80705;SDS011;70229;48.010;7.852;2023-07-20T09:15:14;5.10;;;1.85;;
80705;SDS011;70229;48.010;7.852;2023-07-20T09:17:48;4.90;;;1.85;;
80705;SDS011;70229;48.010;7.852;2023-07-20T09:20:15;4.30;;;2.33;;
80705;SDS011;70229;48.010;7.852;2023-07-20T09:22:42;3.15;;;1.60;;
80705;SDS011;70229;48.010;7.852;2023-07-20T09:27:48;5.07;;;2.15;;
80705;SDS011;70229;48.010;7.852;2023-07-20T09:30:15;4.75;;;1.90;;
80705;SDS011;70229;48.010;7.852;2023-07-20T09:32:45;4.65;;;1.67;;
80705;SDS011;70229;48.010;7.852;2023-07-20T09:35:15;4.75;;;1.98;;
80705;SDS011;70229;48.010;7.852;2023-07-20T09:37:45;4.10;;;1.83;;
80705;SDS011;70229;48.010;7.852;2023-07-20T09:40:17;3.83;;;1.88;;
80705;SDS011;70229;48.010;7.852;2023-07-20T09:42:43;5.82;;;1.98;;
80705;SDS011;70229;48.010;7.852;2023-07-20T09:45:10;3.65;;;1.58;;
80705;SDS011;70229;48.010;7.852;2023-07-20T09:47:36;3.97;;;2.47;;
80705;SDS011;70229;48.010;7.852;2023-07-20T09:50:03;5.50;;;2.25;;
80705;SDS011;70229;48.010;7.852;2023-07-20T09:52:30;4.28;;;1.92;;
80705;SDS011;70229;48.010;7.852;2023-07-20T09:54:56;4.47;;;1.90;;
80705;SDS011;70229;48.010;7.852;2023-07-20T09:57:23;6.38;;;2.28;;
80705;SDS011;70229;48.010;7.852;2023-07-20T09:59:49;4.30;;;1.83;;
80705;SDS011;70229;48.010;7.852;2023-07-20T10:02:20;5.35;;;1.55;;
80705;SDS011;70229;48.010;7.852;2023-07-20T10:04:49;6.25;;;2.47;;
80705;SDS011;70229;48.010;7.852;2023-07-20T10:07:18;4.00;;;2.20;;
80705;SDS011;70229;48.010;7.852;2023-07-20T10:09:47;5.85;;;2.67;;
80705;SDS011;70229;48.010;7.852;2023-07-20T10:12:15;5.00;;;2.15;;
80705;SDS011;70229;48.010;7.852;2023-07-20T10:14:43;3.55;;;1.85;;
80705;SDS011;70229;48.010;7.852;2023-07-20T10:17:16;4.25;;;1.83;;
80705;SDS011;70229;48.010;7.852;2023-07-20T10:19:44;5.78;;;2.13;;
80705;SDS011;70229;48.010;7.852;2023-07-20T10:22:16;3.58;;;1.65;;
80705;SDS011;70229;48.010;7.852;2023-07-20T10:24:46;5.45;;;2.08;;
80705;SDS011;70229;48.010;7.852;2023-07-20T10:27:13;4.80;;;1.95;;
80705;SDS011;70229;48.010;7.852;2023-07-20T10:29:40;4.32;;;1.60;;
80705;SDS011;70229;48.010;7.852;2023-07-20T10:32:07;4.70;;;1.60;;
80705;SDS011;70229;48.010;7.852;2023-07-20T10:34:33;4.07;;;2.17;;
80705;SDS011;70229;48.010;7.852;2023-07-20T10:36:59;4.80;;;1.23;;
80705;SDS011;70229;48.010;7.852;2023-07-20T10:39:25;5.47;;;1.70;;
80705;SDS011;70229;48.010;7.852;2023-07-20T10:42:00;3.22;;;1.98;;
80705;SDS011;70229;48.010;7.852;2023-07-20T10:44:27;3.90;;;1.88;;
80705;SDS011;70229;48.010;7.852;2023-07-20T10:46:58;6.28;;;2.28;;
80705;SDS011;70229;48.010;7.852;2023-07-20T10:49:26;3.72;;;1.95;;
80705;SDS011;70229;48.010;7.852;2023-07-20T10:51:59;4.40;;;1.90;;
80705;SDS011;70229;48.010;7.852;2023-07-20T10:56:54;4.53;;;1.63;;
80705;SDS011;70229;48.010;7.852;2023-07-20T11:01:50;7.93;;;1.95;;
80705;SDS011;70229;48.010;7.852;2023-07-20T11:04:21;5.88;;;1.80;;
80705;SDS011;70229;48.010;7.852;2023-07-20T11:07:06;5.75;;;2.22;;
80705;SDS011;70229;48.010;7.852;2023-07-20T11:09:36;3.33;;;1.80;;
80705;SDS011;70229;48.010;7.852;2023-07-20T11:12:35;6.88;;;2.30;;
80705;SDS011;70229;48.010;7.852;2023-07-20T11:14:55;5.47;;;2.00;;
80705;SDS011;70229;48.010;7.852;2023-07-20T11:17:28;5.13;;;2.20;;
80705;SDS011;70229;48.010;7.852;2023-07-20T11:19:55;4.25;;;2.50;;
80705;SDS011;70229;48.010;7.852;2023-07-20T11:22:21;3.90;;;1.90;;
80705;SDS011;70229;48.010;7.852;2023-07-20T11:24:47;4.18;;;2.08;;
80705;SDS011;70229;48.010;7.852;2023-07-20T11:27:14;5.38;;;2.45;;
80705;SDS011;70229;48.010;7.852;2023-07-20T11:29:40;5.10;;;2.10;;
80705;SDS011;70229;48.010;7.852;2023-07-20T11:32:05;4.55;;;2.40;;
80705;SDS011;70229;48.010;7.852;2023-07-20T11:34:31;3.13;;;1.50;;
80705;SDS011;70229;48.010;7.852;2023-07-20T11:36:58;3.92;;;1.58;;
80705;SDS011;70229;48.010;7.852;2023-07-20T11:39:24;5.18;;;1.90;;
80705;SDS011;70229;48.010;7.852;2023-07-20T11:41:51;8.88;;;2.42;;
80705;SDS011;70229;48.010;7.852;2023-07-20T11:44:18;2.85;;;1.65;;
80705;SDS011;70229;48.010;7.852;2023-07-20T11:46:53;3.03;;;1.73;;
80705;SDS011;70229;48.010;7.852;2023-07-20T11:49:35;7.90;;;2.40;;
80705;SDS011;70229;48.010;7.852;2023-07-20T11:52:09;2.90;;;1.55;;
80705;SDS011;70229;48.010;7.852;2023-07-20T11:54:37;6.30;;;1.88;;
80705;SDS011;70229;48.010;7.852;2023-07-20T11:57:04;2.88;;;1.75;;
80705;SDS011;70229;48.010;7.852;2023-07-20T11:59:30;2.80;;;1.52;;
80705;SDS011;70229;48.010;7.852;2023-07-20T12:01:56;4.75;;;2.08;;
80705;SDS011;70229;48.010;7.852;2023-07-20T12:04:23;3.15;;;1.48;;
80705;SDS011;70229;48.010;7.852;2023-07-20T12:06:49;3.15;;;1.75;;
80705;SDS011;70229;48.010;7.852;2023-07-20T12:09:15;4.80;;;2.20;;
80705;SDS011;70229;48.010;7.852;2023-07-20T12:11:42;4.88;;;2.13;;
80705;SDS011;70229;48.010;7.852;2023-07-20T12:14:10;2.97;;;1.60;;
80705;SDS011;70229;48.010;7.852;2023-07-20T12:16:36;4.00;;;1.75;;
80705;SDS011;70229;48.010;7.852;2023-07-20T12:19:06;7.05;;;2.58;;
80705;SDS011;70229;48.010;7.852;2023-07-20T12:21:34;3.47;;;2.00;;
80705;SDS011;70229;48.010;7.852;2023-07-20T12:24:03;5.85;;;2.33;;
80705;SDS011;70229;48.010;7.852;2023-07-20T12:26:30;4.32;;;1.85;;
80705;SDS011;70229;48.010;7.852;2023-07-20T12:28:56;5.22;;;1.98;;
80705;SDS011;70229;48.010;7.852;2023-07-20T12:31:23;4.32;;;1.75;;
80705;SDS011;70229;48.010;7.852;2023-07-20T12:33:50;3.58;;;1.48;;
80705;SDS011;70229;48.010;7.852;2023-07-20T12:36:16;3.03;;;1.63;;
80705;SDS011;70229;48.010;7.852;2023-07-20T12:38:42;2.72;;;1.63;;
80705;SDS011;70229;48.010;7.852;2023-07-20T12:41:09;5.70;;;2.30;;
80705;SDS011;70229;48.010;7.852;2023-07-20T12:43:39;4.30;;;2.17;;
80705;SDS011;70229;48.010;7.852;2023-07-20T12:46:08;8.43;;;2.25;;
80705;SDS011;70229;48.010;7.852;2023-07-20T12:48:35;6.13;;;2.97;;
80705;SDS011;70229;48.010;7.852;2023-07-20T12:51:06;3.33;;;1.63;;
80705;SDS011;70229;48.010;7.852;2023-07-20T12:53:32;4.45;;;2.03;;
80705;SDS011;70229;48.010;7.852;2023-07-20T12:56:01;4.05;;;2.05;;
80705;SDS011;70229;48.010;7.852;2023-07-20T12:58:27;4.28;;;2.03;;
80705;SDS011;70229;48.010;7.852;2023-07-20T13:00:53;4.15;;;2.10;;
80705;SDS011;70229;48.010;7.852;2023-07-20T13:03:19;4.15;;;2.03;;
80705;SDS011;70229;48.010;7.852;2023-07-20T13:05:48;4.00;;;1.75;;
80705;SDS011;70229;48.010;7.852;2023-07-20T13:08:14;5.53;;;1.90;;
80705;SDS011;70229;48.010;7.852;2023-07-20T13:10:40;5.88;;;2.17;;
80705;SDS011;70229;48.010;7.852;2023-07-20T13:13:06;5.53;;;2.00;;
80705;SDS011;70229;48.010;7.852;2023-07-20T13:15:32;6.32;;;1.92;;
80705;SDS011;70229;48.010;7.852;2023-07-20T13:18:06;3.53;;;1.90;;
80705;SDS011;70229;48.010;7.852;2023-07-20T13:20:31;4.13;;;2.35;;
80705;SDS011;70229;48.010;7.852;2023-07-20T13:22:57;3.55;;;1.58;;
80705;SDS011;70229;48.010;7.852;2023-07-20T13:25:23;3.10;;;1.58;;
80705;SDS011;70229;48.010;7.852;2023-07-20T13:27:49;4.63;;;2.33;;
80705;SDS011;70229;48.010;7.852;2023-07-20T13:30:14;8.68;;;1.73;;
80705;SDS011;70229;48.010;7.852;2023-07-20T13:32:41;3.38;;;1.80;;
80705;SDS011;70229;48.010;7.852;2023-07-20T13:35:08;2.75;;;1.65;;
80705;SDS011;70229;48.010;7.852;2023-07-20T13:37:34;4.75;;;1.92;;
80705;SDS011;70229;48.010;7.852;2023-07-20T13:40:00;3.05;;;1.75;;
80705;SDS011;70229;48.010;7.852;2023-07-20T13:42:26;4.55;;;1.80;;
80705;SDS011;70229;48.010;7.852;2023-07-20T13:44:51;4.53;;;1.83;;
80705;SDS011;70229;48.010;7.852;2023-07-20T13:47:17;7.68;;;1.55;;
80705;SDS011;70229;48.010;7.852;2023-07-20T13:49:43;5.32;;;2.05;;
80705;SDS011;70229;48.010;7.852;2023-07-20T13:52:09;3.67;;;1.92;;
80705;SDS011;70229;48.010;7.852;2023-07-20T13:54:34;4.75;;;1.98;;
80705;SDS011;70229;48.010;7.852;2023-07-20T13:57:00;3.78;;;1.73;;
80705;SDS011;70229;48.010;7.852;2023-07-20T13:59:26;3.88;;;1.55;;
80705;SDS011;70229;48.010;7.852;2023-07-20T14:01:51;6.00;;;2.30;;
80705;SDS011;70229;48.010;7.852;2023-07-20T14:04:17;6.07;;;1.85;;
80705;SDS011;70229;48.010;7.852;2023-07-20T14:06:43;4.60;;;1.63;;
80705;SDS011;70229;48.010;7.852;2023-07-20T14:09:09;2.78;;;1.42;;
80705;SDS011;70229;48.010;7.852;2023-07-20T14:11:34;5.47;;;2.00;;
80705;SDS011;70229;48.010;7.852;2023-07-20T14:14:00;5.75;;;1.75;;
80705;SDS011;70229;48.010;7.852;2023-07-20T14:16:26;4.95;;;1.58;;
80705;SDS011;70229;48.010;7.852;2023-07-20T14:18:52;2.60;;;1.40;;
80705;SDS011;70229;48.010;7.852;2023-07-20T14:21:18;3.55;;;2.03;;
80705;SDS011;70229;48.010;7.852;2023-07-20T14:23:48;3.55;;;1.58;;
80705;SDS011;70229;48.010;7.852;2023-07-20T14:26:16;4.18;;;1.75;;
80705;SDS011;70229;48.010;7.852;2023-07-20T14:28:42;4.07;;;1.42;;
80705;SDS011;70229;48.010;7.852;2023-07-20T14:31:08;4.85;;;1.83;;
80705;SDS011;70229;48.010;7.852;2023-07-20T14:33:33;3.88;;;1.48;;
80705;SDS011;70229;48.010;7.852;2023-07-20T14:35:59;3.40;;;2.10;;
80705;SDS011;70229;48.010;7.852;2023-07-20T14:38:27;5.28;;;1.98;;
80705;SDS011;70229;48.010;7.852;2023-07-20T14:40:53;3.22;;;1.73;;
80705;SDS011;70229;48.010;7.852;2023-07-20T14:43:19;5.00;;;1.60;;
80705;SDS011;70229;48.010;7.852;2023-07-20T14:45:45;4.63;;;1.88;;
80705;SDS011;70229;48.010;7.852;2023-07-20T14:48:10;2.55;;;1.65;;
80705;SDS011;70229;48.010;7.852;2023-07-20T14:50:36;7.50;;;1.77;;
80705;SDS011;70229;48.010;7.852;2023-07-20T14:53:02;3.53;;;1.88;;
80705;SDS011;70229;48.010;7.852;2023-07-20T14:55:28;3.13;;;1.73;;
80705;SDS011;70229;48.010;7.852;2023-07-20T14:57:53;6.47;;;2.05;;
80705;SDS011;70229;48.010;7.852;2023-07-20T15:00:19;3.05;;;1.80;;
80705;SDS011;70229;48.010;7.852;2023-07-20T15:02:45;3.17;;;1.67;;
80705;SDS011;70229;48.010;7.852;2023-07-20T15:05:10;5.97;;;2.17;;
80705;SDS011;70229;48.010;7.852;2023-07-20T15:07:36;4.13;;;1.92;;
80705;SDS011;70229;48.010;7.852;2023-07-20T15:10:06;6.05;;;1.80;;
80705;SDS011;70229;48.010;7.852;2023-07-20T15:12:32;5.40;;;2.20;;
80705;SDS011;70229;48.010;7.852;2023-07-20T15:15:04;3.47;;;1.50;;